Time;durP1;ratioP1;P1;durP2;ratioP2;P2;SDS_P1;SDS_P2;PMS_P1;PMS_P2;Temp;Humidity;BMP_temperature;BMP_pressure;BME280_temperature;BME280_humidity;BME280_pressure;Samples;Min_cycle;Max_cycle;Signal;HPM_P1;HPM_P2
2022/07/30 00:01:02;;;;;;;12.95;8.57;;;17.50;77.60;;;;;;5053334;28;20386;-76
2022/07/30 00:03:28;;;;;;;12.37;9.10;;;17.40;79.10;;;;;;5056111;28;20431;-75
2022/07/30 00:05:54;;;;;;;16.40;9.50;;;17.30;80.60;;;;;;5056008;28;20393;-77
2022/07/30 00:08:22;;;;;;;12.65;7.95;;;17.20;82.50;;;;;;5055178;28;20766;-75
2022/07/30 00:10:48;;;;;;;16.05;9.57;;;17.10;83.30;;;;;;5053718;28;20443;-76
2022/07/30 00:13:13;;;;;;;12.75;8.68;;;17.00;84.00;;;;;;5052185;28;20385;-77
2022/07/30 00:15:39;;;;;;;15.00;8.60;;;17.10;85.30;;;;;;5051821;28;20468;-76
2022/07/30 00:18:05;;;;;;;12.13;7.13;;;17.10;85.10;;;;;;5051622;28;20937;-77
2022/07/30 00:20:30;;;;;;;12.75;8.00;;;17.20;84.20;;;;;;5051991;28;20381;-76
2022/07/30 00:22:56;;;;;;;11.15;7.57;;;17.10;83.70;;;;;;5051276;28;20382;-76
2022/07/30 00:25:22;;;;;;;13.87;8.00;;;17.10;84.00;;;;;;5051673;28;20424;-76
2022/07/30 00:27:47;;;;;;;12.37;7.60;;;17.00;84.80;;;;;;5051546;28;20389;-75
2022/07/30 00:30:13;;;;;;;11.50;7.43;;;16.90;86.30;;;;;;5051620;28;20396;-76
2022/07/30 00:32:39;;;;;;;11.77;8.30;;;16.80;87.70;;;;;;5051889;28;20383;-77
2022/07/30 00:35:05;;;;;;;12.50;7.97;;;16.70;89.00;;;;;;5051049;28;20873;-76
2022/07/30 00:37:31;;;;;;;13.93;8.27;;;16.60;89.80;;;;;;5052292;28;20880;-76
2022/07/30 00:39:57;;;;;;;12.80;8.17;;;16.60;90.20;;;;;;5055919;28;20393;-76
2022/07/30 00:42:25;;;;;;;9.40;7.50;;;16.60;90.30;;;;;;5055472;28;20392;-75
2022/07/30 00:44:52;;;;;;;11.95;7.80;;;16.50;90.70;;;;;;5055849;28;20415;-75
2022/07/30 00:47:18;;;;;;;13.17;7.97;;;16.50;92.60;;;;;;5056001;28;20897;-75
2022/07/30 00:49:43;;;;;;;9.50;8.15;;;16.40;92.00;;;;;;5062676;28;20806;-75
2022/07/30 00:52:09;;;;;;;11.20;7.60;;;16.60;90.10;;;;;;5062033;28;20447;-76
2022/07/30 00:54:35;;;;;;;11.70;8.68;;;16.60;89.10;;;;;;5056581;28;20389;-77
2022/07/30 00:57:00;;;;;;;10.73;8.40;;;16.50;90.50;;;;;;5054856;28;20471;-76
2022/07/30 00:59:27;;;;;;;12.77;7.73;;;16.40;92.00;;;;;;5053900;28;20568;-75
2022/07/30 01:01:53;;;;;;;11.02;8.13;;;16.30;93.50;;;;;;5054664;28;20874;-75
2022/07/30 01:04:19;;;;;;;9.23;7.65;;;16.30;93.50;;;;;;5054702;28;20400;-75
2022/07/30 01:06:44;;;;;;;15.75;8.10;;;16.30;94.40;;;;;;5054988;28;20386;-75
2022/07/30 01:09:10;;;;;;;12.30;8.00;;;16.30;94.20;;;;;;5055171;28;20408;-75
2022/07/30 01:11:38;;;;;;;11.70;8.57;;;16.40;93.10;;;;;;5054755;28;20389;-75
2022/07/30 01:14:05;;;;;;;11.05;8.15;;;16.40;93.60;;;;;;5054628;28;20378;-75
2022/07/30 01:16:32;;;;;;;11.63;8.35;;;16.40;92.60;;;;;;5053846;28;20432;-75
2022/07/30 01:21:50;;;;;;;15.30;8.40;;;16.40;92.20;;;;;;5053980;28;20943;-75
2022/07/30 01:24:27;;;;;;;15.38;8.93;;;16.40;92.20;;;;;;5054249;28;20885;-75
2022/07/30 01:26:54;;;;;;;11.70;8.50;;;16.40;91.60;;;;;;5053940;28;20388;-76
2022/07/30 01:29:22;;;;;;;17.67;8.80;;;16.40;91.60;;;;;;5053899;28;20955;-76
2022/07/30 01:31:52;;;;;;;11.80;8.93;;;16.40;90.80;;;;;;5053590;28;20947;-76
2022/07/30 01:34:19;;;;;;;16.60;8.93;;;16.40;92.50;;;;;;5053949;28;20383;-74
2022/07/30 01:36:45;;;;;;;12.82;8.60;;;16.30;91.10;;;;;;5052360;28;20397;-76
2022/07/30 01:39:13;;;;;;;15.90;9.52;;;16.50;91.30;;;;;;5056393;28;20401;-76
2022/07/30 01:41:41;;;;;;;16.40;10.45;;;16.80;86.30;;;;;;5055206;28;20466;-75
2022/07/30 01:44:09;;;;;;;15.60;10.67;;;17.00;81.50;;;;;;5053660;28;20750;-75
2022/07/30 01:46:35;;;;;;;15.32;10.82;;;17.10;79.60;;;;;;5053427;28;20870;-74
2022/07/30 01:49:02;;;;;;;20.08;11.75;;;17.20;74.90;;;;;;5052431;28;20416;-76
2022/07/30 01:51:29;;;;;;;15.98;10.80;;;17.30;73.30;;;;;;5053142;28;20385;-76
2022/07/30 01:53:55;;;;;;;15.02;10.50;;;17.20;73.70;;;;;;5053396;28;20688;-75
2022/07/30 01:56:24;;;;;;;16.88;10.82;;;17.20;73.90;;;;;;5066650;22;20441;-75
2022/07/30 01:58:52;;;;;;;20.00;11.40;;;17.20;73.80;;;;;;5053298;28;20381;-74
2022/07/30 02:01:18;;;;;;;19.30;12.13;;;17.20;73.80;;;;;;5052938;28;20382;-74
2022/07/30 02:03:44;;;;;;;18.25;11.80;;;17.20;74.60;;;;;;5052950;28;20389;-75
2022/07/30 02:06:19;;;;;;;21.17;11.90;;;17.20;74.90;;;;;;5051782;28;20796;-75
2022/07/30 02:08:55;;;;;;;16.10;11.68;;;17.20;74.90;;;;;;5052963;28;20747;-75
2022/07/30 02:14:13;;;;;;;20.25;12.75;;;17.10;75.20;;;;;;5053185;28;20881;-74
2022/07/30 02:16:40;;;;;;;21.33;12.83;;;17.10;76.30;;;;;;5053769;28;20471;-74
2022/07/30 02:19:13;;;;;;;18.20;13.57;;;17.10;76.00;;;;;;5054588;28;20385;-75
2022/07/30 02:21:42;;;;;;;20.65;13.48;;;17.10;75.30;;;;;;5053629;28;20405;-74
2022/07/30 02:24:13;;;;;;;19.63;13.02;;;17.00;75.80;;;;;;5053939;28;20381;-75
2022/07/30 02:26:41;;;;;;;20.48;13.32;;;17.10;75.60;;;;;;5053420;28;20381;-75
2022/07/30 02:29:08;;;;;;;17.45;13.27;;;17.00;76.40;;;;;;5053061;28;20408;-74
2022/07/30 02:31:35;;;;;;;20.95;13.55;;;17.00;76.80;;;;;;5052660;28;20424;-74
2022/07/30 02:34:05;;;;;;;18.88;13.55;;;17.00;76.80;;;;;;5053156;28;20435;-74
2022/07/30 02:36:32;;;;;;;21.15;14.50;;;16.90;78.40;;;;;;5052604;28;20446;-74
2022/07/30 02:38:58;;;;;;;20.85;13.20;;;16.80;78.80;;;;;;5052811;28;20400;-74
2022/07/30 02:41:27;;;;;;;19.27;13.70;;;16.80;79.10;;;;;;5052668;28;20750;-74
2022/07/30 02:43:54;;;;;;;21.52;14.32;;;16.80;78.80;;;;;;5052759;28;20750;-73
2022/07/30 02:46:23;;;;;;;20.40;14.73;;;16.80;79.70;;;;;;5052367;28;20876;-73
2022/07/30 02:48:50;;;;;;;23.40;14.73;;;16.80;79.10;;;;;;5052451;28;20765;-73
2022/07/30 02:51:18;;;;;;;24.58;14.70;;;16.70;79.60;;;;;;5053491;28;20369;-73
2022/07/30 02:53:46;;;;;;;20.33;15.02;;;16.80;78.90;;;;;;5052729;28;20808;-73
2022/07/30 02:56:14;;;;;;;21.85;15.00;;;16.70;79.80;;;;;;5054215;28;20413;-74
2022/07/30 02:58:43;;;;;;;23.55;14.98;;;16.70;79.60;;;;;;5053487;28;20388;-73
2022/07/30 03:01:11;;;;;;;20.50;14.77;;;16.70;79.60;;;;;;5052392;28;20397;-74
2022/07/30 03:03:38;;;;;;;22.48;14.48;;;16.60;79.80;;;;;;5052850;28;20381;-74
2022/07/30 03:06:05;;;;;;;21.50;14.95;;;16.70;80.10;;;;;;5052804;28;20397;-75
2022/07/30 03:08:32;;;;;;;21.63;14.95;;;16.60;80.20;;;;;;5051503;28;20402;-74
2022/07/30 03:10:58;;;;;;;24.23;14.65;;;16.60;80.10;;;;;;5052565;28;20388;-74
2022/07/30 03:13:24;;;;;;;21.75;15.38;;;16.60;80.00;;;;;;5052721;28;20392;-74
2022/07/30 03:15:51;;;;;;;22.23;15.40;;;16.60;80.10;;;;;;5050729;28;20397;-75
2022/07/30 03:18:19;;;;;;;21.90;14.90;;;16.60;80.00;;;;;;5052257;28;20741;-74
2022/07/30 03:20:57;;;;;;;21.25;15.85;;;16.60;80.30;;;;;;5051732;28;20389;-75
2022/07/30 03:23:24;;;;;;;22.52;14.40;;;16.60;81.10;;;;;;5051900;28;20435;-73
2022/07/30 03:26:09;;;;;;;20.27;15.60;;;16.60;80.90;;;;;;5051865;28;20389;-74
2022/07/30 03:28:38;;;;;;;24.70;15.68;;;16.60;80.40;;;;;;5051583;28;20405;-74
2022/07/30 03:31:05;;;;;;;22.50;15.80;;;16.60;80.70;;;;;;5051734;28;20377;-74
2022/07/30 03:33:32;;;;;;;21.13;14.90;;;16.50;81.00;;;;;;5052176;28;20392;-75
2022/07/30 03:35:58;;;;;;;22.13;14.97;;;16.50;81.70;;;;;;5051813;28;20393;-74
2022/07/30 03:38:24;;;;;;;21.08;15.40;;;16.50;82.00;;;;;;5052302;28;20392;-75
2022/07/30 03:40:51;;;;;;;21.80;14.90;;;16.40;82.80;;;;;;5052061;28;20480;-75
2022/07/30 03:43:16;;;;;;;23.92;15.65;;;16.40;83.40;;;;;;5051978;28;20392;-74
2022/07/30 03:45:44;;;;;;;22.27;16.30;;;16.30;84.00;;;;;;5051913;28;20451;-74
2022/07/30 03:48:12;;;;;;;24.65;16.60;;;16.10;87.60;;;;;;5050530;28;20413;-75
2022/07/30 03:50:39;;;;;;;26.55;17.35;;;16.10;89.30;;;;;;5051843;28;20385;-73
2022/07/30 03:53:07;;;;;;;23.90;16.10;;;16.00;89.60;;;;;;5052831;28;20377;-73
2022/07/30 03:55:34;;;;;;;26.10;16.77;;;16.10;88.70;;;;;;5053025;28;20386;-72
2022/07/30 03:58:00;;;;;;;23.05;16.65;;;16.00;88.80;;;;;;5060170;28;20415;-73
2022/07/30 04:00:27;;;;;;;24.42;15.40;;;16.00;91.00;;;;;;5061676;28;20382;-73
2022/07/30 04:02:53;;;;;;;33.50;17.87;;;16.00;90.60;;;;;;5071449;28;20417;-74
2022/07/30 04:05:19;;;;;;;27.13;18.23;;;15.80;92.20;;;;;;5069967;28;20381;-75
2022/07/30 04:07:45;;;;;;;28.33;18.08;;;15.70;95.90;;;;;;5070061;28;20377;-75
2022/07/30 04:10:12;;;;;;;28.00;17.48;;;15.90;95.10;;;;;;5064276;28;20384;-75
2022/07/30 04:12:38;;;;;;;25.90;17.70;;;16.20;89.90;;;;;;5050273;28;20801;-75
2022/07/30 04:15:04;;;;;;;28.93;17.80;;;16.30;87.40;;;;;;5051171;28;20382;-75
2022/07/30 04:17:44;;;;;;;22.65;17.00;;;16.50;85.60;;;;;;5051163;28;20737;-74
2022/07/30 04:20:22;;;;;;;24.55;16.83;;;16.50;84.50;;;;;;5051065;28;20393;-74
2022/07/30 04:22:49;;;;;;;23.13;17.05;;;16.50;85.20;;;;;;5050875;28;20715;-74
2022/07/30 04:25:15;;;;;;;25.33;17.40;;;16.50;84.70;;;;;;5051368;28;20472;-74
2022/07/30 04:27:41;;;;;;;25.98;18.00;;;16.50;85.00;;;;;;5050578;28;20385;-73
2022/07/30 04:30:07;;;;;;;27.40;19.90;;;16.50;84.90;;;;;;5050414;28;20385;-73
2022/07/30 04:32:34;;;;;;;37.90;20.75;;;16.40;88.60;;;;;;5050883;28;20381;-74
2022/07/30 04:34:59;;;;;;;32.67;20.45;;;16.30;89.70;;;;;;5050882;28;20377;-73
2022/07/30 04:37:26;;;;;;;33.13;21.80;;;16.30;91.20;;;;;;5050740;28;20878;-74
2022/07/30 04:39:56;;;;;;;31.75;20.30;;;16.40;90.50;;;;;;5051179;28;20424;-73
2022/07/30 04:42:26;;;;;;;30.90;20.40;;;16.50;87.80;;;;;;5051074;28;20386;-73
2022/07/30 04:44:52;;;;;;;29.10;20.58;;;16.60;86.90;;;;;;5051069;28;20389;-73
2022/07/30 04:47:18;;;;;;;32.08;21.63;;;16.60;87.30;;;;;;5050823;28;20783;-74
2022/07/30 04:49:45;;;;;;;30.83;21.70;;;16.70;87.10;;;;;;5050636;28;20425;-73
2022/07/30 04:52:11;;;;;;;32.05;21.55;;;16.80;86.00;;;;;;5050804;28;20404;-73
2022/07/30 04:54:45;;;;;;;33.88;22.27;;;16.60;88.10;;;;;;5051028;28;20750;-73
2022/07/30 04:57:14;;;;;;;33.92;22.63;;;16.70;89.00;;;;;;5050596;28;20397;-73
2022/07/30 04:59:39;;;;;;;31.95;22.52;;;16.90;86.20;;;;;;5050874;28;20435;-73
2022/07/30 05:02:06;;;;;;;31.70;22.23;;;17.00;85.80;;;;;;5050263;28;20406;-73
2022/07/30 05:04:34;;;;;;;39.85;25.00;;;17.00;85.90;;;;;;5050353;28;20385;-73
2022/07/30 05:07:01;;;;;;;36.80;25.40;;;16.80;89.00;;;;;;5050276;28;20421;-73
2022/07/30 05:09:28;;;;;;;43.05;27.40;;;16.70;92.00;;;;;;5050147;28;20469;-73
2022/07/30 05:11:55;;;;;;;41.78;26.85;;;16.60;94.00;;;;;;5049821;28;20859;-74
2022/07/30 05:14:21;;;;;;;46.20;27.33;;;16.60;94.50;;;;;;5050064;28;20439;-73
2022/07/30 05:16:48;;;;;;;46.67;27.85;;;16.70;95.20;;;;;;5049921;28;20382;-73
2022/07/30 05:19:13;;;;;;;44.30;27.90;;;16.60;96.10;;;;;;5048784;28;20404;-73
2022/07/30 05:21:39;;;;;;;47.77;27.60;;;16.60;96.70;;;;;;5049982;28;20389;-73
2022/07/30 05:24:05;;;;;;;43.13;28.80;;;16.70;97.00;;;;;;5050229;28;20385;-74
2022/07/30 05:26:31;;;;;;;38.83;28.67;;;16.80;96.70;;;;;;5053532;28;20796;-73
2022/07/30 05:28:56;;;;;;;44.23;29.27;;;16.90;95.10;;;;;;5053450;28;20401;-73
2022/07/30 05:31:22;;;;;;;45.70;31.03;;;17.00;95.60;;;;;;5053397;28;20458;-74
2022/07/30 05:33:47;;;;;;;51.72;30.50;;;17.10;95.90;;;;;;5053737;28;20373;-73
2022/07/30 05:36:13;;;;;;;54.60;30.37;;;17.50;89.90;;;;;;5054828;28;20469;-73
2022/07/30 05:38:39;;;;;;;49.83;32.50;;;17.50;89.30;;;;;;5053798;28;20389;-75
2022/07/30 05:41:04;;;;;;;52.30;32.40;;;17.60;90.70;;;;;;5053416;28;20807;-73
2022/07/30 05:43:30;;;;;;;53.95;32.20;;;17.70;88.10;;;;;;5053439;28;20905;-74
2022/07/30 05:45:55;;;;;;;55.63;32.30;;;17.80;86.90;;;;;;5052024;28;20877;-74
2022/07/30 05:48:21;;;;;;;57.70;33.00;;;17.90;87.10;;;;;;5053475;28;20413;-74
2022/07/30 05:50:46;;;;;;;63.50;32.60;;;17.90;85.30;;;;;;5053454;28;20371;-74
2022/07/30 05:53:12;;;;;;;52.57;31.87;;;17.80;85.80;;;;;;5052670;28;20805;-74
2022/07/30 05:55:37;;;;;;;65.13;34.90;;;17.80;85.70;;;;;;5052933;28;20539;-73
2022/07/30 05:58:03;;;;;;;70.53;36.70;;;17.60;90.00;;;;;;5053177;28;20389;-74
2022/07/30 06:00:28;;;;;;;65.65;36.30;;;17.50;93.10;;;;;;5051995;28;20396;-76
2022/07/30 06:02:54;;;;;;;69.77;37.47;;;17.60;91.10;;;;;;5051622;28;20389;-74
2022/07/30 06:05:19;;;;;;;65.83;38.70;;;17.70;91.90;;;;;;5052602;28;20412;-73
2022/07/30 06:07:46;;;;;;;68.88;36.30;;;17.70;92.30;;;;;;5052837;28;20940;-74
2022/07/30 06:10:11;;;;;;;78.80;42.22;;;17.40;94.00;;;;;;5053198;28;20447;-73
2022/07/30 06:12:37;;;;;;;78.53;41.80;;;17.30;98.10;;;;;;5053588;28;20385;-74
2022/07/30 06:15:03;;;;;;;68.45;40.38;;;17.30;99.60;;;;;;5054126;28;20447;-73
2022/07/30 06:17:29;;;;;;;68.30;39.05;;;17.40;99.30;;;;;;5054545;28;20455;-73
2022/07/30 06:19:54;;;;;;;82.47;42.27;;;17.40;99.90;;;;;;5054248;28;20390;-74
2022/07/30 06:22:20;;;;;;;76.80;41.83;;;17.40;99.90;;;;;;5053541;28;20381;-73
2022/07/30 06:24:46;;;;;;;71.72;40.08;;;17.30;99.90;;;;;;5053002;28;20381;-73
2022/07/30 06:27:11;;;;;;;66.90;39.07;;;17.40;99.90;;;;;;5052266;28;20393;-74
2022/07/30 06:29:37;;;;;;;71.07;39.47;;;17.50;98.80;;;;;;5052262;28;20401;-73
2022/07/30 06:32:03;;;;;;;74.57;40.95;;;17.40;98.90;;;;;;5052281;28;20381;-73
2022/07/30 06:34:28;;;;;;;68.70;39.45;;;17.40;99.60;;;;;;5052110;28;20381;-72
2022/07/30 06:36:54;;;;;;;59.85;38.55;;;17.40;99.50;;;;;;5051473;28;20381;-73
2022/07/30 06:39:20;;;;;;;70.83;38.87;;;17.40;98.00;;;;;;5052079;28;20417;-74
2022/07/30 06:41:45;;;;;;;61.10;37.73;;;17.40;99.00;;;;;;5052206;28;20748;-73
2022/07/30 06:44:11;;;;;;;68.40;37.07;;;17.40;99.00;;;;;;5051997;28;20388;-73
2022/07/30 06:46:36;;;;;;;55.55;36.40;;;17.50;97.50;;;;;;5052314;28;20388;-74
2022/07/30 06:49:03;;;;;;;65.65;36.92;;;17.40;98.50;;;;;;5051782;28;20401;-74
2022/07/30 06:51:28;;;;;;;55.58;35.85;;;17.50;97.40;;;;;;5051941;28;20464;-74
2022/07/30 06:53:54;;;;;;;52.50;34.00;;;17.60;95.80;;;;;;5051831;28;20540;-74
2022/07/30 06:56:19;;;;;;;57.10;34.00;;;17.70;92.40;;;;;;5051370;28;20443;-74
2022/07/30 06:58:45;;;;;;;51.50;32.47;;;17.90;90.30;;;;;;5051720;28;20479;-74
2022/07/30 07:01:10;;;;;;;53.38;31.25;;;18.20;85.70;;;;;;5051562;28;20377;-75
2022/07/30 07:03:36;;;;;;;42.77;28.70;;;18.70;81.70;;;;;;5051476;28;20743;-74
2022/07/30 07:06:02;;;;;;;48.70;29.13;;;19.20;68.90;;;;;;5051573;28;20393;-73
2022/07/30 07:08:28;;;;;;;40.80;28.55;;;19.30;65.50;;;;;;5051808;28;20770;-75
2022/07/30 07:10:54;;;;;;;39.03;24.50;;;19.60;62.40;;;;;;5051577;28;20374;-73
2022/07/30 07:13:19;;;;;;;41.97;26.58;;;19.80;58.50;;;;;;5051633;28;20400;-74
2022/07/30 07:15:45;;;;;;;39.45;24.10;;;19.80;56.20;;;;;;5051470;28;20815;-74
2022/07/30 07:18:11;;;;;;;36.37;22.07;;;19.60;56.10;;;;;;5051487;28;20420;-75
2022/07/30 07:20:37;;;;;;;36.30;23.88;;;19.20;56.40;;;;;;5051539;28;20866;-73
2022/07/30 07:23:03;;;;;;;35.55;23.00;;;19.10;58.60;;;;;;5051096;28;20397;-74
2022/07/30 07:25:28;;;;;;;36.28;23.35;;;19.00;59.70;;;;;;5051382;28;20388;-73
2022/07/30 07:27:54;;;;;;;36.05;23.58;;;18.90;60.60;;;;;;5052137;28;20754;-74
2022/07/30 07:30:19;;;;;;;31.87;22.00;;;19.10;60.70;;;;;;5053294;28;20396;-74
2022/07/30 07:32:45;;;;;;;33.70;22.70;;;19.10;56.50;;;;;;5054403;28;20543;-73
2022/07/30 07:35:12;;;;;;;35.05;22.95;;;19.10;56.90;;;;;;5054656;28;20389;-74
2022/07/30 07:37:38;;;;;;;35.63;22.95;;;19.20;57.00;;;;;;5053373;28;20373;-74
2022/07/30 07:40:04;;;;;;;34.10;22.73;;;19.10;57.50;;;;;;5053385;28;20800;-73
2022/07/30 07:42:30;;;;;;;31.67;21.83;;;19.10;58.80;;;;;;5053059;28;20412;-74
2022/07/30 07:44:55;;;;;;;36.97;22.40;;;19.20;59.40;;;;;;5053226;28;20476;-74
2022/07/30 07:47:21;;;;;;;41.70;21.30;;;19.20;56.70;;;;;;5052988;28;20491;-74
2022/07/30 07:49:46;;;;;;;31.63;21.38;;;19.20;56.60;;;;;;5052722;28;20466;-73
2022/07/30 07:52:12;;;;;;;29.97;20.63;;;19.30;54.10;;;;;;5052356;28;20444;-74
2022/07/30 07:54:37;;;;;;;41.42;21.48;;;19.40;55.20;;;;;;5053288;28;20378;-75
2022/07/30 07:57:06;;;;;;;37.75;23.17;;;19.50;54.90;;;;;;5053268;28;20394;-74
2022/07/30 07:59:32;;;;;;;38.58;24.25;;;19.60;57.50;;;;;;5053108;28;20460;-74
2022/07/30 08:01:58;;;;;;;43.63;24.40;;;19.80;55.60;;;;;;5052369;28;20446;-73
2022/07/30 08:04:24;;;;;;;34.80;23.10;;;19.90;54.20;;;;;;5053304;28;20814;-73
2022/07/30 08:06:49;;;;;;;29.43;21.70;;;20.10;54.50;;;;;;5054092;28;20459;-74
2022/07/30 08:09:15;;;;;;;33.77;23.27;;;20.10;52.50;;;;;;5053086;28;20448;-73
2022/07/30 08:11:40;;;;;;;33.30;22.85;;;20.10;52.60;;;;;;5052356;28;20468;-74
2022/07/30 08:14:06;;;;;;;35.83;22.03;;;20.00;51.40;;;;;;5053239;28;20382;-73
2022/07/30 08:16:31;;;;;;;35.70;20.80;;;20.00;51.20;;;;;;5052847;28;20435;-74
2022/07/30 08:18:57;;;;;;;30.40;20.52;;;20.00;50.60;;;;;;5051599;28;20423;-73
2022/07/30 08:21:22;;;;;;;32.33;20.20;;;20.10;50.00;;;;;;5051051;28;20401;-74
2022/07/30 08:23:49;;;;;;;31.02;20.58;;;20.20;50.70;;;;;;5050964;28;20385;-74
2022/07/30 08:26:15;;;;;;;27.35;18.38;;;20.60;46.90;;;;;;5050865;28;20396;-74
2022/07/30 08:28:42;;;;;;;27.73;18.03;;;20.70;46.00;;;;;;5051292;28;20401;-74
2022/07/30 08:31:08;;;;;;;35.20;19.85;;;20.90;45.10;;;;;;5051890;28;20773;-74
2022/07/30 08:33:34;;;;;;;27.93;19.50;;;20.70;46.00;;;;;;5051627;28;20702;-73
2022/07/30 08:36:00;;;;;;;29.30;19.30;;;20.60;47.10;;;;;;5051140;28;20388;-73
2022/07/30 08:38:25;;;;;;;33.93;20.17;;;20.60;48.00;;;;;;5049373;28;20389;-73
2022/07/30 08:40:54;;;;;;;28.37;19.20;;;20.70;46.90;;;;;;5049713;28;20403;-74
2022/07/30 08:43:20;;;;;;;31.20;20.30;;;20.70;47.50;;;;;;5050613;28;20436;-74
2022/07/30 08:45:46;;;;;;;23.33;17.67;;;21.10;45.80;;;;;;5053176;28;20394;-76
2022/07/30 08:48:14;;;;;;;24.70;16.50;;;21.60;41.80;;;;;;5054031;28;20497;-74
2022/07/30 08:50:42;;;;;;;24.52;16.42;;;22.00;39.20;;;;;;5054047;28;20381;-75
2022/07/30 08:53:09;;;;;;;25.13;15.95;;;22.20;38.20;;;;;;5055035;28;20381;-75
2022/07/30 08:55:34;;;;;;;26.45;16.65;;;22.30;38.60;;;;;;5060830;28;20421;-75
2022/07/30 08:58:01;;;;;;;30.37;16.87;;;22.30;36.20;;;;;;5063663;28;20469;-76
2022/07/30 09:00:27;;;;;;;24.73;16.30;;;22.00;37.10;;;;;;5069694;28;20377;-73
2022/07/30 09:02:53;;;;;;;26.73;16.90;;;21.90;38.00;;;;;;5067095;28;20461;-76
2022/07/30 09:05:18;;;;;;;22.50;14.50;;;22.10;36.70;;;;;;5055207;28;20449;-74
2022/07/30 09:07:44;;;;;;;26.63;14.95;;;22.10;35.50;;;;;;5055459;28;20431;-74
2022/07/30 09:10:10;;;;;;;25.70;14.90;;;22.30;35.00;;;;;;5055078;28;20408;-76
2022/07/30 09:12:39;;;;;;;26.80;15.25;;;22.10;35.80;;;;;;5055669;28;20381;-75
2022/07/30 09:15:09;;;;;;;23.75;14.55;;;21.90;35.70;;;;;;5055542;28;20405;-75
2022/07/30 09:17:46;;;;;;;21.50;15.43;;;21.90;36.70;;;;;;5064794;28;20401;-74
2022/07/30 09:20:11;;;;;;;21.65;13.27;;;21.90;35.60;;;;;;5075327;28;20405;-74
2022/07/30 09:22:42;;;;;;;19.23;12.13;;;22.10;35.30;;;;;;5070993;28;20522;-74
2022/07/30 09:25:07;;;;;;;20.75;12.75;;;22.40;31.90;;;;;;5073633;28;20385;-74
2022/07/30 09:27:44;;;;;;;18.98;12.40;;;22.50;32.20;;;;;;5065487;28;20478;-76
2022/07/30 09:30:10;;;;;;;26.08;11.98;;;22.60;31.60;;;;;;5056854;28;20455;-74
2022/07/30 09:32:49;;;;;;;18.90;12.00;;;22.80;29.70;;;;;;5053704;28;20523;-75
2022/07/30 09:35:15;;;;;;;21.95;12.07;;;22.70;29.80;;;;;;5055173;28;20468;-75
2022/07/30 09:37:41;;;;;;;22.98;11.85;;;22.20;30.10;;;;;;5056168;28;20405;-75
2022/07/30 09:40:14;;;;;;;19.97;11.33;;;22.10;31.50;;;;;;5056345;28;20391;-75
2022/07/30 09:42:40;;;;;;;13.88;10.00;;;22.30;30.30;;;;;;5054225;28;20440;-75
2022/07/30 09:45:09;;;;;;;19.08;11.00;;;22.50;28.60;;;;;;5054892;28;20385;-74
2022/07/30 09:47:47;;;;;;;19.35;9.85;;;22.70;26.90;;;;;;5053768;28;20384;-73
2022/07/30 09:50:14;;;;;;;16.60;9.50;;;22.80;24.60;;;;;;5055068;28;20409;-75
2022/07/30 09:52:42;;;;;;;18.63;9.50;;;23.10;24.80;;;;;;5053943;28;20381;-75
2022/07/30 09:55:09;;;;;;;17.02;9.52;;;23.20;23.60;;;;;;5053919;28;20382;-74
2022/07/30 09:57:35;;;;;;;16.13;9.50;;;23.10;23.40;;;;;;5054596;28;20402;-74
2022/07/30 10:00:21;;;;;;;14.80;9.20;;;23.00;23.20;;;;;;5054107;28;20385;-74
2022/07/30 10:02:49;;;;;;;17.90;8.30;;;22.90;22.90;;;;;;5054240;28;20381;-76
2022/07/30 10:05:17;;;;;;;17.90;7.80;;;23.20;22.20;;;;;;5053744;28;20381;-75
2022/07/30 10:07:56;;;;;;;13.20;7.53;;;23.40;20.60;;;;;;5054050;28;20378;-74
2022/07/30 10:10:25;;;;;;;15.77;7.55;;;23.50;20.60;;;;;;5053073;28;20390;-74
2022/07/30 10:13:01;;;;;;;11.90;6.93;;;23.60;19.50;;;;;;5053352;28;20449;-75
2022/07/30 10:15:29;;;;;;;10.73;6.95;;;23.60;18.90;;;;;;5053809;28;20380;-75
2022/07/30 10:17:55;;;;;;;11.10;7.00;;;23.60;19.00;;;;;;5053917;28;20380;-73
2022/07/30 10:20:21;;;;;;;12.48;6.00;;;23.40;19.30;;;;;;5053720;28;20378;-74
2022/07/30 10:22:48;;;;;;;12.15;6.90;;;23.30;19.30;;;;;;5053937;28;20380;-73
2022/07/30 10:25:17;;;;;;;12.52;5.88;;;23.10;20.00;;;;;;5052301;28;20386;-74
2022/07/30 10:27:43;;;;;;;10.40;6.25;;;23.10;18.40;;;;;;5053332;28;20431;-74
2022/07/30 10:30:10;;;;;;;12.82;6.22;;;23.20;18.10;;;;;;5053539;28;20432;-74
2022/07/30 10:32:37;;;;;;;10.13;6.03;;;23.20;18.70;;;;;;5052463;28;20390;-73
2022/07/30 10:35:04;;;;;;;11.40;5.60;;;23.30;18.70;;;;;;5051946;28;20873;-74
2022/07/30 10:37:32;;;;;;;13.20;6.70;;;23.40;17.10;;;;;;5054702;28;20382;-74
2022/07/30 10:40:16;;;;;;;8.27;5.47;;;23.30;16.90;;;;;;5053584;28;20822;-73
2022/07/30 10:42:48;;;;;;;5.88;4.53;;;23.20;17.00;;;;;;5051960;28;20507;-75
2022/07/30 10:45:37;;;;;;;8.10;4.13;;;23.10;15.80;;;;;;5051496;28;20390;-75
2022/07/30 10:48:03;;;;;;;10.00;4.50;;;23.20;16.50;;;;;;5052735;28;20404;-75
2022/07/30 10:50:29;;;;;;;11.52;5.60;;;23.30;15.00;;;;;;5052624;28;20386;-76
2022/07/30 10:53:02;;;;;;;5.32;4.47;;;23.30;15.70;;;;;;5052473;28;20750;-73
2022/07/30 10:55:36;;;;;;;7.50;4.78;;;23.40;15.00;;;;;;5051641;28;20481;-73
2022/07/30 10:58:12;;;;;;;10.18;4.75;;;23.50;14.50;;;;;;5052860;28;20464;-75
2022/07/30 11:00:50;;;;;;;7.15;4.10;;;23.40;14.20;;;;;;5052735;28;20413;-74
2022/07/30 11:03:25;;;;;;;9.73;3.90;;;23.40;13.70;;;;;;5052595;28;20866;-74
2022/07/30 11:06:16;;;;;;;8.98;4.72;;;23.30;13.80;;;;;;5052901;28;20446;-74
2022/07/30 11:08:48;;;;;;;10.18;4.90;;;23.30;14.80;;;;;;5052649;28;20409;-74
2022/07/30 11:11:22;;;;;;;8.23;4.55;;;23.30;14.70;;;;;;5052598;28;20370;-75
2022/07/30 11:14:01;;;;;;;6.53;4.30;;;23.30;15.10;;;;;;5052644;28;20381;-75
2022/07/30 11:16:32;;;;;;;7.32;3.53;;;23.40;14.50;;;;;;5052022;28;20753;-75
2022/07/30 11:19:16;;;;;;;8.02;3.80;;;23.60;14.70;;;;;;5052003;28;20389;-74
2022/07/30 11:21:43;;;;;;;8.70;4.15;;;23.80;13.40;;;;;;5051078;28;20433;-74
2022/07/30 11:24:44;;;;;;;9.00;4.80;;;23.80;13.20;;;;;;5053194;28;20452;-73
2022/07/30 11:27:36;;;;;;;6.85;4.30;;;23.70;12.70;;;;;;5052816;28;20900;-73
2022/07/30 11:30:04;;;;;;;9.52;4.80;;;23.60;13.90;;;;;;5053350;28;20967;-75
2022/07/30 11:32:32;;;;;;;12.38;4.88;;;23.60;15.50;;;;;;5052865;28;20404;-75
2022/07/30 11:35:23;;;;;;;11.02;4.50;;;23.70;15.70;;;;;;5054368;28;20381;-74
2022/07/30 11:37:57;;;;;;;8.27;4.35;;;23.80;15.10;;;;;;5055788;28;20388;-74
2022/07/30 11:40:27;;;;;;;7.28;4.18;;;23.90;13.90;;;;;;5052504;28;20472;-74
2022/07/30 11:43:15;;;;;;;8.93;4.00;;;24.10;13.60;;;;;;5052267;28;20388;-75
2022/07/30 11:45:42;;;;;;;7.00;4.00;;;24.30;12.10;;;;;;5052175;28;20473;-74
2022/07/30 11:48:14;;;;;;;8.52;4.47;;;24.50;12.90;;;;;;5052171;28;20775;-75
2022/07/30 11:50:41;;;;;;;9.77;4.80;;;24.40;12.90;;;;;;5051965;28;20468;-74
2022/07/30 11:53:13;;;;;;;10.50;5.07;;;24.60;12.10;;;;;;5052005;28;20875;-76
2022/07/30 11:55:41;;;;;;;8.02;6.07;;;24.40;12.30;;;;;;5051517;28;20881;-74
2022/07/30 11:58:29;;;;;;;7.63;4.93;;;24.30;13.50;;;;;;5052010;28;20413;-74
2022/07/30 12:00:57;;;;;;;10.13;5.20;;;24.40;13.00;;;;;;5052207;28;20390;-75
2022/07/30 12:03:27;;;;;;;10.50;4.38;;;24.60;12.30;;;;;;5052830;28;21004;-74
2022/07/30 12:05:54;;;;;;;5.38;4.40;;;24.80;12.10;;;;;;5050464;28;20862;-75
2022/07/30 12:08:21;;;;;;;6.80;4.10;;;25.00;11.00;;;;;;5051742;28;20397;-74
2022/07/30 12:10:58;;;;;;;9.70;4.65;;;25.10;10.30;;;;;;5051749;28;20747;-74
2022/07/30 12:13:24;;;;;;;5.47;4.63;;;25.50;9.70;;;;;;5051862;28;20949;-75
2022/07/30 12:15:49;;;;;;;4.23;3.83;;;25.50;10.00;;;;;;5051578;28;20461;-74
2022/07/30 12:18:27;;;;;;;6.18;4.50;;;25.60;8.20;;;;;;5050434;28;20888;-74
2022/07/30 12:20:58;;;;;;;5.95;4.22;;;25.60;8.30;;;;;;5051577;28;20882;-74
2022/07/30 12:23:24;;;;;;;8.75;4.20;;;25.80;8.30;;;;;;5052016;28;20469;-76
2022/07/30 12:25:50;;;;;;;4.18;3.40;;;26.00;7.40;;;;;;5052064;28;20395;-74
2022/07/30 12:28:21;;;;;;;4.73;3.83;;;26.20;7.40;;;;;;5051059;28;22810;-75
2022/07/30 12:30:47;;;;;;;6.88;3.80;;;26.40;6.90;;;;;;5050234;28;20392;-74
2022/07/30 12:33:12;;;;;;;7.85;3.70;;;26.20;7.00;;;;;;5051425;28;20374;-75
2022/07/30 12:35:46;;;;;;;5.67;3.30;;;25.90;7.10;;;;;;5055890;28;20419;-75
2022/07/30 12:38:13;;;;;;;5.97;3.90;;;25.80;7.50;;;;;;5059127;28;20458;-74
2022/07/30 12:40:56;;;;;;;4.07;3.20;;;25.70;9.00;;;;;;5076228;28;20393;-74
2022/07/30 12:43:52;;;;;;;7.82;3.90;;;26.10;8.20;;;;;;5072772;28;20380;-75